Time;durP1;ratioP1;P1;durP2;ratioP2;P2;SDS_P1;SDS_P2;PMS_P1;PMS_P2;Temp;Humidity;BMP_temperature;BMP_pressure;BME280_temperature;BME280_humidity;BME280_pressure;Samples;Min_cycle;Max_cycle;Signal;HPM_P1;HPM_P2
2022/12/05 00:00:39;;;;;;;;;18.00;16.00;;;;;;;;5071199;27;51086;-43
2022/12/05 00:03:23;;;;;;;;;21.75;17.50;;;;;;;;5063740;27;51161;-48
2022/12/05 00:06:08;;;;;;;;;19.00;14.75;;;;;;;;5067251;27;51182;-49
2022/12/05 00:08:52;;;;;;;;;16.25;13.00;;;;;;;;5062364;28;51108;-44
2022/12/05 00:11:38;;;;;;;;;19.00;16.75;;;;;;;;5062792;28;51212;-46
2022/12/05 00:14:22;;;;;;;;;15.50;14.25;;;;;;;;5061904;27;51063;-43
2022/12/05 00:17:07;;;;;;;;;18.25;15.00;;;;;;;;5062278;28;51116;-47
2022/12/05 00:19:51;;;;;;;;;19.75;15.50;;;;;;;;5080517;27;51002;-42
2022/12/05 00:22:37;;;;;;;;;18.00;15.50;;;;;;;;5082198;27;51091;-45
2022/12/05 00:25:21;;;;;;;;;15.25;14.00;;;;;;;;5082608;27;51062;-42
2022/12/05 00:28:05;;;;;;;;;17.75;15.25;;;;;;;;5082664;27;51039;-47
2022/12/05 00:30:50;;;;;;;;;20.00;15.75;;;;;;;;5081405;27;51097;-43
2022/12/05 00:33:34;;;;;;;;;12.75;12.75;;;;;;;;5082151;27;51066;-47
2022/12/05 00:36:18;;;;;;;;;16.25;15.00;;;;;;;;5082789;27;50959;-45
2022/12/05 00:39:05;;;;;;;;;15.75;14.75;;;;;;;;5082375;27;51468;-46
2022/12/05 00:41:49;;;;;;;;;13.75;13.75;;;;;;;;5078074;27;51107;-44
2022/12/05 00:44:34;;;;;;;;;19.75;16.75;;;;;;;;5060485;28;51400;-45
2022/12/05 00:47:18;;;;;;;;;17.00;15.50;;;;;;;;5062288;28;51169;-42
2022/12/05 00:50:03;;;;;;;;;19.50;15.75;;;;;;;;5081160;27;51480;-42
2022/12/05 00:52:48;;;;;;;;;18.75;15.00;;;;;;;;5081802;27;51145;-44
2022/12/05 00:55:35;;;;;;;;;14.00;12.25;;;;;;;;5079429;27;51077;-42
2022/12/05 00:58:19;;;;;;;;;17.50;15.75;;;;;;;;5082075;27;51011;-45
2022/12/05 01:01:05;;;;;;;;;13.00;12.50;;;;;;;;5081161;27;51139;-43
2022/12/05 01:03:51;;;;;;;;;23.75;13.25;;;;;;;;5081749;27;51046;-44
2022/12/05 01:06:36;;;;;;;;;14.75;13.00;;;;;;;;5081705;27;51116;-43
2022/12/05 01:09:21;;;;;;;;;15.50;13.50;;;;;;;;5082074;27;51423;-45
2022/12/05 01:12:05;;;;;;;;;12.25;12.25;;;;;;;;5079881;27;51635;-44
2022/12/05 01:14:49;;;;;;;;;16.75;13.75;;;;;;;;5081484;27;51084;-42
2022/12/05 01:17:34;;;;;;;;;14.25;10.75;;;;;;;;5081666;27;51063;-47
2022/12/05 01:20:18;;;;;;;;;13.25;11.50;;;;;;;;5081814;27;51385;-47
2022/12/05 01:23:03;;;;;;;;;13.50;12.25;;;;;;;;5080924;27;51171;-47
2022/12/05 01:25:49;;;;;;;;;14.25;13.00;;;;;;;;5081687;27;51037;-46
2022/12/05 01:28:33;;;;;;;;;15.25;13.75;;;;;;;;5081316;27;51548;-44
2022/12/05 01:31:25;;;;;;;;;15.50;13.25;;;;;;;;5081433;27;51135;-43
2022/12/05 01:34:11;;;;;;;;;15.75;14.00;;;;;;;;5081104;27;51328;-42
2022/12/05 01:36:56;;;;;;;;;15.75;13.50;;;;;;;;5081390;27;51164;-45
2022/12/05 01:39:40;;;;;;;;;18.75;16.25;;;;;;;;5081133;27;51086;-45
2022/12/05 01:42:24;;;;;;;;;19.50;14.25;;;;;;;;5075147;27;51141;-43
2022/12/05 01:45:14;;;;;;;;;13.50;12.25;;;;;;;;5059462;28;51380;-44
2022/12/05 01:48:01;;;;;;;;;15.00;12.75;;;;;;;;5077613;27;51062;-45
2022/12/05 01:50:46;;;;;;;;;10.50;10.25;;;;;;;;5081349;27;51053;-46
2022/12/05 01:53:31;;;;;;;;;9.50;8.00;;;;;;;;5079046;27;51625;-43
2022/12/05 01:56:15;;;;;;;;;15.50;12.50;;;;;;;;5080991;27;51202;-44
2022/12/05 01:59:01;;;;;;;;;16.25;11.25;;;;;;;;5077467;27;51484;-44
2022/12/05 02:01:45;;;;;;;;;14.75;10.00;;;;;;;;5080947;27;51022;-47
2022/12/05 02:04:30;;;;;;;;;10.75;9.50;;;;;;;;5080720;27;51138;-43
2022/12/05 02:07:15;;;;;;;;;14.75;11.50;;;;;;;;5080604;27;51135;-44
2022/12/05 02:09:59;;;;;;;;;15.50;13.25;;;;;;;;5075674;27;51428;-46
2022/12/05 02:12:44;;;;;;;;;10.75;10.50;;;;;;;;5080450;27;51168;-44
2022/12/05 02:15:49;;;;;;;;;11.00;11.00;;;;;;;;5080787;27;51172;-46
2022/12/05 02:18:54;;;;;;;;;14.25;11.50;;;;;;;;5080117;27;51544;-44
2022/12/05 02:21:54;;;;;;;;;12.75;11.25;;;;;;;;5080216;27;51401;-45
2022/12/05 02:24:44;;;;;;;;;11.25;10.75;;;;;;;;5080249;27;51096;-47
2022/12/05 02:27:44;;;;;;;;;16.75;12.50;;;;;;;;5080307;27;51168;-44
2022/12/05 02:30:35;;;;;;;;;13.50;12.00;;;;;;;;5079751;27;51104;-46
2022/12/05 02:33:27;;;;;;;;;14.25;10.50;;;;;;;;5080128;27;51231;-47
2022/12/05 02:36:15;;;;;;;;;9.25;8.25;;;;;;;;5080417;27;51381;-48
2022/12/05 02:39:03;;;;;;;;;12.25;12.25;;;;;;;;5078434;27;52099;-46
2022/12/05 02:42:03;;;;;;;;;14.25;12.25;;;;;;;;5080236;27;51090;-43
2022/12/05 02:45:00;;;;;;;;;14.25;12.00;;;;;;;;5058060;28;51266;-44
2022/12/05 02:47:51;;;;;;;;;16.50;10.50;;;;;;;;5059671;28;51202;-47
2022/12/05 02:50:37;;;;;;;;;12.75;10.75;;;;;;;;5059631;28;51150;-42
2022/12/05 02:53:23;;;;;;;;;14.50;12.75;;;;;;;;5073168;27;51184;-45
2022/12/05 02:56:07;;;;;;;;;11.75;10.25;;;;;;;;5079693;27;51493;-47
2022/12/05 02:58:53;;;;;;;;;13.50;11.75;;;;;;;;5079809;27;51133;-43
2022/12/05 03:01:37;;;;;;;;;13.00;11.00;;;;;;;;5079992;27;51447;-45
2022/12/05 03:04:23;;;;;;;;;15.50;12.25;;;;;;;;5079581;27;51208;-44
2022/12/05 03:07:09;;;;;;;;;14.00;12.00;;;;;;;;5079818;27;51353;-44
2022/12/05 03:09:57;;;;;;;;;16.50;10.50;;;;;;;;5079367;27;51461;-45
2022/12/05 03:12:43;;;;;;;;;13.50;10.50;;;;;;;;5076708;27;51148;-47
2022/12/05 03:15:31;;;;;;;;;11.50;11.50;;;;;;;;5079534;28;51160;-47
2022/12/05 03:18:18;;;;;;;;;16.25;12.00;;;;;;;;5079797;27;51149;-47
2022/12/05 03:21:07;;;;;;;;;13.00;13.00;;;;;;;;5080594;27;51104;-49
2022/12/05 03:23:57;;;;;;;;;14.75;13.25;;;;;;;;5080100;27;51171;-43
2022/12/05 03:26:41;;;;;;;;;12.50;10.25;;;;;;;;5082842;27;51199;-44
2022/12/05 03:29:45;;;;;;;;;13.50;11.00;;;;;;;;5083652;27;51014;-43
2022/12/05 03:32:37;;;;;;;;;16.25;13.50;;;;;;;;5083993;27;51321;-43
2022/12/05 03:35:39;;;;;;;;;14.75;12.75;;;;;;;;5083594;27;51157;-42
2022/12/05 03:38:32;;;;;;;;;12.50;12.00;;;;;;;;5083568;27;51301;-42
2022/12/05 03:41:22;;;;;;;;;16.75;12.25;;;;;;;;5083280;27;51161;-43
2022/12/05 03:44:12;;;;;;;;;14.75;12.50;;;;;;;;5082227;27;51204;-42
2022/12/05 03:46:59;;;;;;;;;12.00;10.25;;;;;;;;5079073;27;51188;-45
2022/12/05 03:49:46;;;;;;;;;11.50;9.00;;;;;;;;5083316;27;51218;-43
2022/12/05 03:52:38;;;;;;;;;16.00;12.00;;;;;;;;5083368;27;51250;-44
2022/12/05 03:55:25;;;;;;;;;11.75;10.00;;;;;;;;5083185;27;51149;-46
2022/12/05 03:58:14;;;;;;;;;15.00;10.75;;;;;;;;5079939;27;51121;-44
2022/12/05 04:01:00;;;;;;;;;14.25;12.75;;;;;;;;5083231;27;51522;-43
2022/12/05 04:03:50;;;;;;;;;15.50;13.50;;;;;;;;5083096;27;51093;-44
2022/12/05 04:06:36;;;;;;;;;11.75;11.75;;;;;;;;5082648;27;51401;-44
2022/12/05 04:09:25;;;;;;;;;15.00;13.00;;;;;;;;5083175;27;51316;-43
2022/12/05 04:12:13;;;;;;;;;14.25;12.50;;;;;;;;5078675;27;51405;-44
2022/12/05 04:14:59;;;;;;;;;13.75;11.50;;;;;;;;5082511;27;51078;-42
2022/12/05 04:17:55;;;;;;;;;18.25;14.50;;;;;;;;5083075;27;51475;-44
2022/12/05 04:25:31;;;;;;;;;13.00;12.25;;;;;;;;5082586;27;51057;-43
2022/12/05 04:26:52;;;;;;;;;12.00;12.00;;;;;;;;5082809;27;51236;-44
2022/12/05 04:29:42;;;;;;;;;17.75;14.75;;;;;;;;5082406;27;51042;-42
2022/12/05 04:32:29;;;;;;;;;15.50;13.25;;;;;;;;5082090;27;51051;-43
2022/12/05 04:35:19;;;;;;;;;15.25;11.50;;;;;;;;5082866;27;51362;-44
2022/12/05 04:38:10;;;;;;;;;16.50;13.00;;;;;;;;5082469;27;50995;-45
2022/12/05 04:41:15;;;;;;;;;15.50;12.00;;;;;;;;5082296;27;51211;-43
2022/12/05 04:44:02;;;;;;;;;13.75;11.25;;;;;;;;5060221;27;51505;-42
2022/12/05 04:46:48;;;;;;;;;17.75;15.50;;;;;;;;5081870;27;51118;-45
2022/12/05 04:49:33;;;;;;;;;16.50;13.00;;;;;;;;5082691;27;51044;-43
2022/12/05 04:52:18;;;;;;;;;16.75;14.00;;;;;;;;5081311;27;51476;-44
2022/12/05 04:55:07;;;;;;;;;16.75;16.00;;;;;;;;5081945;27;51188;-46
2022/12/05 04:58:05;;;;;;;;;22.75;18.25;;;;;;;;5081905;27;51082;-45
2022/12/05 05:01:02;;;;;;;;;29.25;24.25;;;;;;;;5076866;27;51153;-46
2022/12/05 05:03:58;;;;;;;;;37.00;27.25;;;;;;;;5061220;28;51463;-44
2022/12/05 05:06:42;;;;;;;;;57.75;44.25;;;;;;;;5061581;28;51078;-45
2022/12/05 05:09:27;;;;;;;;;37.50;31.75;;;;;;;;5061608;28;51216;-46
2022/12/05 05:12:11;;;;;;;;;33.50;30.00;;;;;;;;5060923;28;51034;-43
2022/12/05 05:14:55;;;;;;;;;30.25;28.25;;;;;;;;5061576;28;51059;-43
2022/12/05 05:17:40;;;;;;;;;29.25;23.75;;;;;;;;5076792;27;51176;-43
2022/12/05 05:20:26;;;;;;;;;31.50;27.00;;;;;;;;5081704;27;51105;-47
2022/12/05 05:23:10;;;;;;;;;44.50;34.00;;;;;;;;5061929;27;51238;-42
2022/12/05 05:25:55;;;;;;;;;49.00;38.25;;;;;;;;5078342;27;51068;-42
2022/12/05 05:28:39;;;;;;;;;61.25;46.25;;;;;;;;5081329;27;50995;-45
2022/12/05 05:31:24;;;;;;;;;50.50;41.00;;;;;;;;5081468;27;51052;-45
2022/12/05 05:34:09;;;;;;;;;34.25;30.50;;;;;;;;5081181;27;51659;-45
2022/12/05 05:36:53;;;;;;;;;41.00;35.75;;;;;;;;5081235;27;51148;-47
2022/12/05 05:39:37;;;;;;;;;46.00;36.75;;;;;;;;5081602;27;50959;-45
2022/12/05 05:42:22;;;;;;;;;47.00;36.00;;;;;;;;5072597;27;51675;-46
2022/12/05 05:45:07;;;;;;;;;42.50;35.00;;;;;;;;5080190;27;51556;-46
2022/12/05 05:47:51;;;;;;;;;48.00;39.00;;;;;;;;5081209;27;51074;-47
2022/12/05 05:50:36;;;;;;;;;58.50;43.25;;;;;;;;5080310;27;51171;-47
2022/12/05 05:53:21;;;;;;;;;50.50;39.00;;;;;;;;5080638;27;51365;-45
2022/12/05 05:56:07;;;;;;;;;53.50;38.50;;;;;;;;5081064;27;51168;-47
2022/12/05 05:58:55;;;;;;;;;47.75;39.00;;;;;;;;5074727;27;51185;-45
2022/12/05 06:01:40;;;;;;;;;44.00;31.50;;;;;;;;5078312;27;51240;-43
2022/12/05 06:04:24;;;;;;;;;46.50;35.00;;;;;;;;5080883;27;51164;-46
2022/12/05 06:07:09;;;;;;;;;44.50;33.75;;;;;;;;5080751;27;51064;-45
2022/12/05 06:09:53;;;;;;;;;46.25;37.00;;;;;;;;5080764;27;51141;-46
2022/12/05 06:12:38;;;;;;;;;40.75;33.25;;;;;;;;5079230;27;51023;-44
2022/12/05 06:15:23;;;;;;;;;43.75;34.00;;;;;;;;5080770;27;51105;-43
2022/12/05 06:18:08;;;;;;;;;41.50;33.00;;;;;;;;5080571;27;51156;-45
2022/12/05 06:20:53;;;;;;;;;49.75;39.00;;;;;;;;5080438;27;51133;-43
2022/12/05 06:23:38;;;;;;;;;48.00;38.25;;;;;;;;5080376;27;51077;-44
2022/12/05 06:26:22;;;;;;;;;46.50;36.00;;;;;;;;5080125;27;51137;-44
2022/12/05 06:29:07;;;;;;;;;50.50;36.25;;;;;;;;5080838;27;51172;-43
2022/12/05 06:31:51;;;;;;;;;41.25;35.25;;;;;;;;5080079;27;51171;-48
2022/12/05 06:34:36;;;;;;;;;41.25;33.50;;;;;;;;5079940;27;51141;-43
2022/12/05 06:37:20;;;;;;;;;25.75;16.25;;;;;;;;5080135;27;51083;-43
2022/12/05 06:40:05;;;;;;;;;54.50;39.75;;;;;;;;5080454;27;51161;-43
2022/12/05 06:42:49;;;;;;;;;51.00;41.50;;;;;;;;5076393;27;51164;-43
2022/12/05 06:45:38;;;;;;;;;57.25;43.25;;;;;;;;5058053;28;51258;-43
2022/12/05 06:48:23;;;;;;;;;55.25;45.25;;;;;;;;5059628;28;51563;-44
2022/12/05 06:51:11;;;;;;;;;56.25;45.00;;;;;;;;5059375;28;51069;-42
2022/12/05 06:53:56;;;;;;;;;55.50;44.50;;;;;;;;5059644;28;51160;-45
2022/12/05 06:56:40;;;;;;;;;56.75;45.00;;;;;;;;5075480;27;51156;-46
2022/12/05 06:59:24;;;;;;;;;53.25;43.25;;;;;;;;5079868;27;51098;-45
2022/12/05 07:02:11;;;;;;;;;53.50;41.25;;;;;;;;5079410;27;51149;-47
2022/12/05 07:04:55;;;;;;;;;51.75;39.75;;;;;;;;5080050;27;51118;-44
2022/12/05 07:07:40;;;;;;;;;55.00;42.00;;;;;;;;5073595;27;51164;-47
2022/12/05 07:10:24;;;;;;;;;58.00;43.75;;;;;;;;5061627;27;51191;-44
2022/12/05 07:13:08;;;;;;;;;55.25;43.25;;;;;;;;5077936;27;51670;-44
2022/12/05 07:15:53;;;;;;;;;55.00;43.25;;;;;;;;5078488;27;51192;-45
2022/12/05 07:18:37;;;;;;;;;58.50;43.25;;;;;;;;5078390;28;51008;-42
2022/12/05 07:21:22;;;;;;;;;57.25;45.00;;;;;;;;5078000;28;51475;-44
2022/12/05 07:24:06;;;;;;;;;51.50;43.00;;;;;;;;5079307;28;51153;-44
2022/12/05 07:26:51;;;;;;;;;47.50;40.00;;;;;;;;5077551;28;51119;-45
2022/12/05 07:29:35;;;;;;;;;55.25;43.00;;;;;;;;5079060;28;51074;-45
2022/12/05 07:32:20;;;;;;;;;50.75;41.75;;;;;;;;5074948;28;51381;-43
2022/12/05 07:35:04;;;;;;;;;51.50;40.25;;;;;;;;5078742;28;51158;-43
2022/12/05 07:37:48;;;;;;;;;51.00;39.75;;;;;;;;5077112;28;51675;-45
2022/12/05 07:40:33;;;;;;;;;52.00;41.25;;;;;;;;5062791;28;51213;-47
2022/12/05 07:43:17;;;;;;;;;48.50;39.75;;;;;;;;5058804;28;51047;-46
2022/12/05 07:46:04;;;;;;;;;51.50;42.50;;;;;;;;5058699;28;51508;-42
2022/12/05 07:48:48;;;;;;;;;52.50;42.25;;;;;;;;5059104;28;51038;-44
2022/12/05 07:51:34;;;;;;;;;53.25;40.25;;;;;;;;5058875;28;51066;-43
2022/12/05 07:54:18;;;;;;;;;44.75;36.50;;;;;;;;5059219;28;51142;-44
2022/12/05 07:57:03;;;;;;;;;53.00;40.50;;;;;;;;5070126;28;51373;-43
2022/12/05 07:59:47;;;;;;;;;55.00;41.00;;;;;;;;5078434;28;51053;-45
2022/12/05 08:02:32;;;;;;;;;50.25;39.25;;;;;;;;5079165;28;51581;-44
2022/12/05 08:05:16;;;;;;;;;45.00;37.25;;;;;;;;5070331;28;51200;-48
2022/12/05 08:08:01;;;;;;;;;46.75;37.00;;;;;;;;5062296;28;51206;-49
2022/12/05 08:10:45;;;;;;;;;46.00;36.75;;;;;;;;5062615;28;51118;-44
2022/12/05 08:13:30;;;;;;;;;45.00;36.25;;;;;;;;5062349;28;51007;-45
2022/12/05 08:16:16;;;;;;;;;47.75;38.00;;;;;;;;5070304;27;51452;-48
2022/12/05 08:19:02;;;;;;;;;40.50;32.50;;;;;;;;5062330;28;51101;-47
2022/12/05 08:21:46;;;;;;;;;40.75;33.00;;;;;;;;5061690;28;51347;-48
2022/12/05 08:24:30;;;;;;;;;36.75;31.75;;;;;;;;5075193;27;51234;-48
2022/12/05 08:27:15;;;;;;;;;34.00;29.50;;;;;;;;5061664;28;51559;-46
2022/12/05 08:29:59;;;;;;;;;30.50;27.00;;;;;;;;5061441;28;51144;-46
2022/12/05 08:32:44;;;;;;;;;36.75;30.00;;;;;;;;5081978;27;51188;-45
2022/12/05 08:35:28;;;;;;;;;39.00;30.50;;;;;;;;5079077;27;51014;-44
2022/12/05 08:38:12;;;;;;;;;29.00;26.50;;;;;;;;5082173;27;51100;-44
2022/12/05 08:41:04;;;;;;;;;19.50;19.50;;;;;;;;5081245;27;51199;-48
2022/12/05 08:43:48;;;;;;;;;32.75;25.50;;;;;;;;5082061;27;51132;-45
2022/12/05 08:46:33;;;;;;;;;23.25;19.75;;;;;;;;5081751;27;51061;-50
2022/12/05 08:49:18;;;;;;;;;24.75;22.75;;;;;;;;5081655;27;51082;-48
2022/12/05 08:52:02;;;;;;;;;30.50;27.50;;;;;;;;5081407;27;51125;-48
2022/12/05 08:54:47;;;;;;;;;17.75;16.25;;;;;;;;5081647;27;51008;-43
2022/12/05 08:57:31;;;;;;;;;17.00;14.00;;;;;;;;5082021;27;51329;-43
2022/12/05 09:00:16;;;;;;;;;12.75;11.50;;;;;;;;5081956;27;51347;-48
2022/12/05 09:03:01;;;;;;;;;15.50;15.00;;;;;;;;5081266;27;51442;-47
2022/12/05 09:05:45;;;;;;;;;17.50;13.25;;;;;;;;5081618;27;51167;-45
2022/12/05 09:08:30;;;;;;;;;13.00;13.00;;;;;;;;5080681;27;51090;-47
2022/12/05 09:11:18;;;;;;;;;15.50;14.50;;;;;;;;5080772;27;51073;-46
2022/12/05 09:14:04;;;;;;;;;15.25;14.00;;;;;;;;5081447;27;51169;-46
2022/12/05 09:16:48;;;;;;;;;12.50;12.50;;;;;;;;5080432;27;51051;-46
2022/12/05 09:19:32;;;;;;;;;14.00;12.00;;;;;;;;5079810;27;51338;-45
2022/12/05 09:22:17;;;;;;;;;15.00;14.75;;;;;;;;5081223;27;51101;-45
2022/12/05 09:25:01;;;;;;;;;19.75;14.75;;;;;;;;5080706;27;51152;-46
2022/12/05 09:27:45;;;;;;;;;18.25;15.00;;;;;;;;5082073;27;51070;-47
2022/12/05 09:30:30;;;;;;;;;13.25;11.25;;;;;;;;5076842;27;51087;-49
2022/12/05 09:33:14;;;;;;;;;11.50;11.00;;;;;;;;5063307;27;51105;-46
2022/12/05 09:36:02;;;;;;;;;13.00;12.00;;;;;;;;5060453;28;51158;-43
2022/12/05 09:38:46;;;;;;;;;13.75;13.25;;;;;;;;5061016;28;51131;-46
2022/12/05 09:44:45;;;;;;;;;16.50;14.50;;;;;;;;5078422;27;51167;-45
2022/12/05 09:47:32;;;;;;;;;15.75;15.00;;;;;;;;5080884;27;51030;-44
2022/12/05 09:50:25;;;;;;;;;15.25;13.00;;;;;;;;5080689;27;51358;-49
2022/12/05 09:53:09;;;;;;;;;12.00;12.00;;;;;;;;5080426;27;51177;-47
2022/12/05 09:55:53;;;;;;;;;12.75;12.75;;;;;;;;5080623;27;51078;-46
2022/12/05 09:58:49;;;;;;;;;15.50;11.00;;;;;;;;5081283;27;51087;-45
2022/12/05 10:01:40;;;;;;;;;14.00;12.50;;;;;;;;5080698;27;51558;-47
2022/12/05 10:04:27;;;;;;;;;12.25;11.00;;;;;;;;5073241;27;51287;-46
2022/12/05 10:07:11;;;;;;;;;16.50;13.00;;;;;;;;5074720;27;51116;-49
2022/12/05 10:10:09;;;;;;;;;16.75;13.75;;;;;;;;5080620;27;51045;-45
2022/12/05 10:12:56;;;;;;;;;16.25;14.50;;;;;;;;5073429;27;51378;-47
2022/12/05 10:15:47;;;;;;;;;10.00;10.00;;;;;;;;5080235;27;51176;-49
2022/12/05 10:18:31;;;;;;;;;15.50;12.25;;;;;;;;5073125;27;51169;-45
2022/12/05 10:21:24;;;;;;;;;11.75;11.50;;;;;;;;5070996;27;51165;-45
2022/12/05 10:24:14;;;;;;;;;17.25;13.25;;;;;;;;5076531;27;51073;-45
2022/12/05 10:27:01;;;;;;;;;11.75;10.50;;;;;;;;5080122;27;51490;-48
2022/12/05 10:30:08;;;;;;;;;18.75;16.00;;;;;;;;5079752;27;51218;-46
2022/12/05 10:32:55;;;;;;;;;16.25;12.00;;;;;;;;5061430;27;51351;-48
2022/12/05 10:35:40;;;;;;;;;16.75;13.25;;;;;;;;5059464;28;51177;-47
2022/12/05 10:38:28;;;;;;;;;12.25;12.25;;;;;;;;5059835;28;51116;-45
2022/12/05 10:41:13;;;;;;;;;12.00;11.00;;;;;;;;5059638;28;51179;-45
2022/12/05 10:43:58;;;;;;;;;14.75;10.75;;;;;;;;5059392;28;51293;-47
2022/12/05 10:46:42;;;;;;;;;14.00;13.25;;;;;;;;5059356;28;51153;-46
2022/12/05 10:49:28;;;;;;;;;9.75;9.75;;;;;;;;5059834;28;51182;-47
2022/12/05 10:52:13;;;;;;;;;13.75;11.75;;;;;;;;5059648;28;51016;-50
2022/12/05 10:55:02;;;;;;;;;12.50;12.00;;;;;;;;5073084;27;51185;-47
2022/12/05 10:57:51;;;;;;;;;14.00;12.00;;;;;;;;5080117;27;51426;-49
2022/12/05 11:00:40;;;;;;;;;11.00;9.75;;;;;;;;5079087;27;51156;-49
2022/12/05 11:03:29;;;;;;;;;10.75;10.50;;;;;;;;5079253;27;51182;-49
2022/12/05 11:06:14;;;;;;;;;10.50;10.50;;;;;;;;5059459;28;51149;-49
2022/12/05 11:09:02;;;;;;;;;13.75;12.50;;;;;;;;5059240;28;51074;-47
2022/12/05 11:11:59;;;;;;;;;13.00;13.00;;;;;;;;5058921;28;51144;-46
2022/12/05 11:15:01;;;;;;;;;17.00;13.00;;;;;;;;5059462;28;51150;-51
2022/12/05 11:17:45;;;;;;;;;14.75;13.00;;;;;;;;5075870;28;51494;-46
2022/12/05 11:20:34;;;;;;;;;19.50;14.50;;;;;;;;5079828;28;51118;-46
2022/12/05 11:23:28;;;;;;;;;15.50;13.00;;;;;;;;5079402;28;51379;-46
2022/12/05 11:26:33;;;;;;;;;16.75;14.25;;;;;;;;5067704;28;52778;-45
2022/12/05 11:29:32;;;;;;;;;13.50;12.75;;;;;;;;5059583;28;51152;-48
2022/12/05 11:32:18;;;;;;;;;15.00;12.50;;;;;;;;5059037;28;51120;-48
2022/12/05 11:35:21;;;;;;;;;15.50;14.50;;;;;;;;5059334;28;51114;-47
2022/12/05 11:38:05;;;;;;;;;35.25;30.75;;;;;;;;5075907;28;51366;-47
2022/12/05 11:41:02;;;;;;;;;19.25;16.75;;;;;;;;5059329;28;51134;-52
2022/12/05 11:43:46;;;;;;;;;16.50;15.00;;;;;;;;5063042;28;51470;-46
2022/12/05 11:46:50;;;;;;;;;13.75;11.25;;;;;;;;5040626;28;51220;-46
2022/12/05 11:49:37;;;;;;;;;16.00;11.75;;;;;;;;5040534;28;51512;-49
2022/12/05 11:52:25;;;;;;;;;15.50;15.50;;;;;;;;5040212;28;51173;-53
2022/12/05 11:55:27;;;;;;;;;13.00;13.00;;;;;;;;5041023;28;51083;-51
2022/12/05 11:58:14;;;;;;;;;9.50;9.50;;;;;;;;5040178;28;51133;-52
2022/12/05 12:01:17;;;;;;;;;11.25;10.50;;;;;;;;5040453;28;51137;-54
2022/12/05 12:04:19;;;;;;;;;15.00;10.50;;;;;;;;5035329;28;51224;-49
2022/12/05 12:07:14;;;;;;;;;14.50;12.75;;;;;;;;5040640;28;51085;-49
2022/12/05 12:10:12;;;;;;;;;14.50;11.25;;;;;;;;5033203;28;51426;-52
2022/12/05 12:13:08;;;;;;;;;12.50;10.25;;;;;;;;5038360;28;51237;-48
2022/12/05 12:15:52;;;;;;;;;10.75;10.50;;;;;;;;5040419;28;51240;-51
2022/12/05 12:18:48;;;;;;;;;14.25;12.50;;;;;;;;5077351;27;51069;-52
2022/12/05 12:21:36;;;;;;;;;15.75;13.75;;;;;;;;5082665;27;51073;-50
2022/12/05 12:24:43;;;;;;;;;15.75;13.75;;;;;;;;5081496;27;51295;-49
2022/12/05 12:27:45;;;;;;;;;14.50;14.00;;;;;;;;5071180;27;51302;-48
2022/12/05 12:30:46;;;;;;;;;12.25;11.75;;;;;;;;5061791;28;51202;-51
2022/12/05 12:33:38;;;;;;;;;12.25;11.25;;;;;;;;5062143;28;51340;-57
2022/12/05 12:36:25;;;;;;;;;14.50;12.25;;;;;;;;5062067;28;51048;-52
2022/12/05 12:39:15;;;;;;;;;13.50;13.00;;;;;;;;5062363;28;51084;-55
2022/12/05 12:42:18;;;;;;;;;14.00;13.75;;;;;;;;5062391;28;51576;-51
2022/12/05 12:45:02;;;;;;;;;13.75;11.75;;;;;;;;5070864;27;52071;-52
2022/12/05 12:47:47;;;;;;;;;13.25;12.25;;;;;;;;5081794;27;51216;-51
2022/12/05 12:50:32;;;;;;;;;13.25;12.00;;;;;;;;5081993;27;51107;-51
2022/12/05 12:53:35;;;;;;;;;15.00;14.00;;;;;;;;5072401;27;51124;-51
2022/12/05 12:56:19;;;;;;;;;17.00;13.25;;;;;;;;5082228;27;51105;-54
2022/12/05 12:59:26;;;;;;;;;12.75;12.75;;;;;;;;5076021;27;51065;-55
2022/12/05 13:02:16;;;;;;;;;14.00;14.00;;;;;;;;5081880;27;51145;-51
2022/12/05 13:05:16;;;;;;;;;17.50;15.50;;;;;;;;5081848;27;51139;-53
2022/12/05 13:08:06;;;;;;;;;13.25;11.75;;;;;;;;5081885;27;51440;-49
2022/12/05 13:10:50;;;;;;;;;17.00;13.25;;;;;;;;5070405;27;51058;-48
2022/12/05 13:13:37;;;;;;;;;18.00;15.25;;;;;;;;5069947;27;51573;-52
2022/12/05 13:16:36;;;;;;;;;18.00;15.00;;;;;;;;5081584;27;51141;-47
2022/12/05 13:19:24;;;;;;;;;18.50;14.75;;;;;;;;5081911;27;51534;-54
2022/12/05 13:22:10;;;;;;;;;15.00;12.25;;;;;;;;5080804;27;51305;-52
2022/12/05 13:24:54;;;;;;;;;14.75;12.00;;;;;;;;5082165;27;51068;-49
2022/12/05 13:27:39;;;;;;;;;17.25;15.75;;;;;;;;5080523;27;51111;-55
2022/12/05 13:30:26;;;;;;;;;12.00;12.00;;;;;;;;5066796;27;51173;-49
2022/12/05 13:33:24;;;;;;;;;11.75;11.25;;;;;;;;5060823;28;51102;-55
2022/12/05 13:42:23;;;;;;;;;14.25;12.50;;;;;;;;4939544;28;51170;-52
2022/12/05 13:45:10;;;;;;;;;14.25;12.75;;;;;;;;4989144;28;51053;-47
2022/12/05 13:48:00;;;;;;;;;15.00;14.25;;;;;;;;4978741;28;51100;-52
2022/12/05 13:50:45;;;;;;;;;14.25;12.75;;;;;;;;4979103;28;51073;-51
2022/12/05 13:53:46;;;;;;;;;13.25;13.25;;;;;;;;4977947;28;51583;-53
2022/12/05 13:56:48;;;;;;;;;15.25;13.75;;;;;;;;4977442;28;51148;-50
2022/12/05 13:59:51;;;;;;;;;12.50;12.25;;;;;;;;4978503;28;51477;-53
2022/12/05 14:02:44;;;;;;;;;12.50;12.00;;;;;;;;4978522;28;51204;-52
2022/12/05 14:05:34;;;;;;;;;15.00;13.00;;;;;;;;4990220;28;51426;-49
2022/12/05 14:08:31;;;;;;;;;17.50;14.25;;;;;;;;4997847;28;51278;-53
2022/12/05 14:11:16;;;;;;;;;17.25;14.25;;;;;;;;4997943;28;51119;-53
2022/12/05 14:14:00;;;;;;;;;11.00;11.00;;;;;;;;4997487;28;51137;-50
2022/12/05 14:16:46;;;;;;;;;16.00;12.75;;;;;;;;5049683;27;51121;-52
2022/12/05 14:19:39;;;;;;;;;15.25;14.50;;;;;;;;5080348;27;52034;-49
2022/12/05 14:22:53;;;;;;;;;15.50;15.25;;;;;;;;5079117;27;51082;-48
2022/12/05 14:25:37;;;;;;;;;17.25;12.00;;;;;;;;5047551;27;51414;-50
2022/12/05 14:28:25;;;;;;;;;11.50;11.50;;;;;;;;5080519;27;51187;-55
2022/12/05 14:31:27;;;;;;;;;16.50;15.00;;;;;;;;5079819;27;51445;-49
2022/12/05 14:34:12;;;;;;;;;16.75;14.25;;;;;;;;5067754;27;51181;-54
2022/12/05 14:36:58;;;;;;;;;17.00;14.75;;;;;;;;5060249;28;51183;-49
2022/12/05 14:39:51;;;;;;;;;15.25;13.75;;;;;;;;5059878;28;51024;-52
2022/12/05 14:42:41;;;;;;;;;17.50;13.50;;;;;;;;5079350;27;51177;-51
2022/12/05 14:45:29;;;;;;;;;9.25;9.25;;;;;;;;5079464;27;51046;-54
2022/12/05 14:48:13;;;;;;;;;17.00;13.00;;;;;;;;5065743;27;51093;-51
2022/12/05 14:50:59;;;;;;;;;19.75;14.00;;;;;;;;5079410;27;51506;-52
2022/12/05 14:53:43;;;;;;;;;19.75;15.50;;;;;;;;5080016;27;51504;-52
2022/12/05 14:56:28;;;;;;;;;14.50;14.25;;;;;;;;5078233;27;51370;-52
2022/12/05 14:59:12;;;;;;;;;15.75;15.00;;;;;;;;5093093;27;51070;-51
2022/12/05 15:02:00;;;;;;;;;16.75;15.00;;;;;;;;5079887;27;51110;-51
2022/12/05 15:04:49;;;;;;;;;17.25;15.50;;;;;;;;5060251;27;51023;-55
2022/12/05 15:07:36;;;;;;;;;11.25;10.75;;;;;;;;5060051;28;51146;-49
2022/12/05 15:10:22;;;;;;;;;17.75;16.25;;;;;;;;5057772;28;51446;-53
2022/12/05 15:13:11;;;;;;;;;15.25;13.00;;;;;;;;5059329;28;50955;-53
2022/12/05 15:16:17;;;;;;;;;15.75;13.75;;;;;;;;5061700;27;51394;-48
2022/12/05 15:19:06;;;;;;;;;20.00;14.75;;;;;;;;5058357;28;51205;-53
2022/12/05 15:21:55;;;;;;;;;20.00;14.75;;;;;;;;5058091;28;51549;-51
2022/12/05 15:24:39;;;;;;;;;17.75;15.50;;;;;;;;5058415;28;51543;-53
2022/12/05 15:27:24;;;;;;;;;14.75;13.00;;;;;;;;5075470;28;51464;-53
2022/12/05 15:30:14;;;;;;;;;16.50;14.50;;;;;;;;5063325;28;51186;-52
2022/12/05 15:33:00;;;;;;;;;17.00;17.00;;;;;;;;5073346;28;51249;-49
2022/12/05 15:35:45;;;;;;;;;14.50;13.50;;;;;;;;5074854;28;51135;-54
2022/12/05 15:38:31;;;;;;;;;19.50;18.25;;;;;;;;5079002;28;51018;-50
2022/12/05 15:41:16;;;;;;;;;22.00;16.50;;;;;;;;5072689;28;51202;-54
2022/12/05 15:44:03;;;;;;;;;21.50;16.50;;;;;;;;5077245;28;51149;-49
2022/12/05 15:46:52;;;;;;;;;21.75;17.75;;;;;;;;5078549;28;51473;-48
2022/12/05 15:49:36;;;;;;;;;25.25;20.00;;;;;;;;5079554;28;51095;-50
2022/12/05 15:52:31;;;;;;;;;20.75;17.75;;;;;;;;5070568;28;51064;-51
2022/12/05 15:55:37;;;;;;;;;23.00;18.75;;;;;;;;5067198;28;51066;-44
2022/12/05 15:58:28;;;;;;;;;20.25;17.00;;;;;;;;5060905;28;51091;-50
2022/12/05 16:01:12;;;;;;;;;19.25;18.50;;;;;;;;5064008;28;51524;-56
2022/12/05 16:04:03;;;;;;;;;17.00;16.00;;;;;;;;5058929;28;51383;-48
2022/12/05 16:06:53;;;;;;;;;22.00;18.75;;;;;;;;5073334;28;51035;-51
2022/12/05 16:09:41;;;;;;;;;17.25;15.25;;;;;;;;5079445;28;51216;-48
2022/12/05 16:12:34;;;;;;;;;19.75;16.50;;;;;;;;5078801;28;51082;-55
2022/12/05 16:15:27;;;;;;;;;20.50;17.75;;;;;;;;5079077;28;51101;-55
2022/12/05 16:18:22;;;;;;;;;21.00;17.75;;;;;;;;5079429;28;51122;-51
2022/12/05 16:21:26;;;;;;;;;19.25;16.75;;;;;;;;5079290;28;51164;-52
2022/12/05 16:24:18;;;;;;;;;20.50;18.50;;;;;;;;5079383;28;51125;-54
2022/12/05 16:27:03;;;;;;;;;18.75;16.25;;;;;;;;5079023;27;51563;-49
2022/12/05 16:29:47;;;;;;;;;23.00;21.25;;;;;;;;5062514;28;51116;-53
2022/12/05 16:32:33;;;;;;;;;21.75;20.25;;;;;;;;5064378;27;51153;-53